Big River, California
Current Conditions -  °F | °C
As of 4:35 PM on Monday 24 Nov 2014 (Local Time) from KHII Reporting Station
Clear Clear  
Wind Chill: 66°   Ceiling: Unl
Heat Index: 66°   Visibility: 10mi
Dew Point: 10°   Wind: 17mph
Humidity: 11%   Direction: 320°NW
Pressure: 30.26"   Gusts: 24mph
Location:  34.1895°N, 114.364°W
Report Text: KHII 250035Z AUTO 32015G21KT 10SM CLR 19/M12 A3026 RMK AO2
Loading
Personal Weather Stations






























Interactive Weather Map New forecast layout! Learn more

10-Day Weather Forecast

Advertisements
Track Severe Weather on mobile